sensor_id;sensor_type;location;lat;lon;timestamp;temperature;humidity
16200;DHT22;8207;52.494;4.654;2023-06-10T00:00:48;20.20;99.90
16200;DHT22;8207;52.494;4.654;2023-06-10T00:03:16;20.10;99.90
16200;DHT22;8207;52.494;4.654;2023-06-10T00:05:43;20.10;99.90
16200;DHT22;8207;52.494;4.654;2023-06-10T00:08:10;20.00;99.90
16200;DHT22;8207;52.494;4.654;2023-06-10T00:10:38;20.00;99.90
16200;DHT22;8207;52.494;4.654;2023-06-10T00:13:06;20.00;99.90
16200;DHT22;8207;52.494;4.654;2023-06-10T00:15:34;20.00;99.90
16200;DHT22;8207;52.494;4.654;2023-06-10T00:18:04;20.00;99.90
16200;DHT22;8207;52.494;4.654;2023-06-10T00:20:31;20.00;99.90
16200;DHT22;8207;52.494;4.654;2023-06-10T00:22:58;20.00;99.90
16200;DHT22;8207;52.494;4.654;2023-06-10T00:25:26;19.90;99.90
16200;DHT22;8207;52.494;4.654;2023-06-10T00:27:54;19.90;99.90
16200;DHT22;8207;52.494;4.654;2023-06-10T00:30:21;19.80;99.90
16200;DHT22;8207;52.494;4.654;2023-06-10T00:32:48;19.70;99.90
16200;DHT22;8207;52.494;4.654;2023-06-10T00:35:16;19.70;99.90
16200;DHT22;8207;52.494;4.654;2023-06-10T00:37:43;19.70;99.90
16200;DHT22;8207;52.494;4.654;2023-06-10T00:40:11;19.60;99.90
16200;DHT22;8207;52.494;4.654;2023-06-10T00:42:38;19.60;99.90
16200;DHT22;8207;52.494;4.654;2023-06-10T00:45:06;19.60;99.90
16200;DHT22;8207;52.494;4.654;2023-06-10T00:47:33;19.60;99.90
16200;DHT22;8207;52.494;4.654;2023-06-10T00:50:01;19.50;99.90
16200;DHT22;8207;52.494;4.654;2023-06-10T00:52:30;19.50;99.90
16200;DHT22;8207;52.494;4.654;2023-06-10T00:54:57;19.40;99.90
16200;DHT22;8207;52.494;4.654;2023-06-10T00:57:25;19.40;99.90
16200;DHT22;8207;52.494;4.654;2023-06-10T00:59:52;19.40;99.90
16200;DHT22;8207;52.494;4.654;2023-06-10T01:02:19;19.40;99.90
16200;DHT22;8207;52.494;4.654;2023-06-10T01:04:46;19.30;99.90
16200;DHT22;8207;52.494;4.654;2023-06-10T01:07:20;19.30;99.90
16200;DHT22;8207;52.494;4.654;2023-06-10T01:09:55;19.30;99.90
16200;DHT22;8207;52.494;4.654;2023-06-10T01:12:30;19.30;99.90
16200;DHT22;8207;52.494;4.654;2023-06-10T01:14:58;19.20;99.90
16200;DHT22;8207;52.494;4.654;2023-06-10T01:17:26;19.20;99.90
16200;DHT22;8207;52.494;4.654;2023-06-10T01:19:54;19.20;99.90
16200;DHT22;8207;52.494;4.654;2023-06-10T01:22:23;19.20;99.90
16200;DHT22;8207;52.494;4.654;2023-06-10T01:24:52;19.20;99.90
16200;DHT22;8207;52.494;4.654;2023-06-10T01:27:21;19.10;99.90
16200;DHT22;8207;52.494;4.654;2023-06-10T01:29:53;19.10;99.90
16200;DHT22;8207;52.494;4.654;2023-06-10T01:32:27;19.10;99.90
16200;DHT22;8207;52.494;4.654;2023-06-10T01:34:56;19.00;99.90
16200;DHT22;8207;52.494;4.654;2023-06-10T01:37:26;19.00;99.90
16200;DHT22;8207;52.494;4.654;2023-06-10T01:39:56;19.00;99.90
16200;DHT22;8207;52.494;4.654;2023-06-10T01:42:25;19.00;99.90
16200;DHT22;8207;52.494;4.654;2023-06-10T01:44:52;19.00;99.90
16200;DHT22;8207;52.494;4.654;2023-06-10T01:47:19;18.90;99.90
16200;DHT22;8207;52.494;4.654;2023-06-10T01:49:46;18.90;99.90
16200;DHT22;8207;52.494;4.654;2023-06-10T01:52:13;18.90;99.90
16200;DHT22;8207;52.494;4.654;2023-06-10T01:54:41;18.90;99.90
16200;DHT22;8207;52.494;4.654;2023-06-10T01:57:08;18.90;99.90
16200;DHT22;8207;52.494;4.654;2023-06-10T01:59:35;18.90;99.90
16200;DHT22;8207;52.494;4.654;2023-06-10T02:02:03;18.90;99.90
16200;DHT22;8207;52.494;4.654;2023-06-10T02:04:30;18.90;99.90
16200;DHT22;8207;52.494;4.654;2023-06-10T02:06:57;18.90;99.90
16200;DHT22;8207;52.494;4.654;2023-06-10T02:09:25;18.90;99.90
16200;DHT22;8207;52.494;4.654;2023-06-10T02:11:53;18.80;99.90
16200;DHT22;8207;52.494;4.654;2023-06-10T02:14:20;18.80;99.90
16200;DHT22;8207;52.494;4.654;2023-06-10T02:16:46;18.80;99.90
16200;DHT22;8207;52.494;4.654;2023-06-10T02:19:14;18.80;99.90
16200;DHT22;8207;52.494;4.654;2023-06-10T02:21:40;18.80;99.90
16200;DHT22;8207;52.494;4.654;2023-06-10T02:24:08;18.70;99.90
16200;DHT22;8207;52.494;4.654;2023-06-10T02:26:34;18.70;99.90
16200;DHT22;8207;52.494;4.654;2023-06-10T02:29:03;18.70;99.90
16200;DHT22;8207;52.494;4.654;2023-06-10T02:31:30;18.70;99.90
16200;DHT22;8207;52.494;4.654;2023-06-10T02:33:56;18.70;99.90
16200;DHT22;8207;52.494;4.654;2023-06-10T02:36:23;18.70;99.90
16200;DHT22;8207;52.494;4.654;2023-06-10T02:38:53;18.70;99.90
16200;DHT22;8207;52.494;4.654;2023-06-10T02:41:19;18.70;99.90
16200;DHT22;8207;52.494;4.654;2023-06-10T02:43:47;18.70;99.90
16200;DHT22;8207;52.494;4.654;2023-06-10T02:46:15;18.70;99.90
16200;DHT22;8207;52.494;4.654;2023-06-10T02:48:42;18.70;99.90
16200;DHT22;8207;52.494;4.654;2023-06-10T02:51:10;18.70;99.90
16200;DHT22;8207;52.494;4.654;2023-06-10T02:53:36;18.70;99.90
16200;DHT22;8207;52.494;4.654;2023-06-10T02:56:03;18.60;99.90
16200;DHT22;8207;52.494;4.654;2023-06-10T02:58:30;18.60;99.90
16200;DHT22;8207;52.494;4.654;2023-06-10T03:00:57;18.50;99.90
16200;DHT22;8207;52.494;4.654;2023-06-10T03:03:26;18.50;99.90
16200;DHT22;8207;52.494;4.654;2023-06-10T03:05:53;18.50;99.90
16200;DHT22;8207;52.494;4.654;2023-06-10T03:08:20;18.50;99.90
16200;DHT22;8207;52.494;4.654;2023-06-10T03:10:46;18.50;99.90
16200;DHT22;8207;52.494;4.654;2023-06-10T03:13:15;18.50;99.90
16200;DHT22;8207;52.494;4.654;2023-06-10T03:15:42;18.40;99.90
16200;DHT22;8207;52.494;4.654;2023-06-10T03:18:10;18.30;99.90
16200;DHT22;8207;52.494;4.654;2023-06-10T03:20:38;18.30;99.90
16200;DHT22;8207;52.494;4.654;2023-06-10T03:23:05;18.30;99.90
16200;DHT22;8207;52.494;4.654;2023-06-10T03:25:32;18.30;99.90
16200;DHT22;8207;52.494;4.654;2023-06-10T03:27:59;18.30;99.90
16200;DHT22;8207;52.494;4.654;2023-06-10T03:30:27;18.20;99.90
16200;DHT22;8207;52.494;4.654;2023-06-10T03:32:54;18.20;99.90
16200;DHT22;8207;52.494;4.654;2023-06-10T03:35:21;18.20;99.90
16200;DHT22;8207;52.494;4.654;2023-06-10T03:37:49;18.20;99.90
16200;DHT22;8207;52.494;4.654;2023-06-10T03:40:16;18.20;99.90
16200;DHT22;8207;52.494;4.654;2023-06-10T03:42:42;18.10;99.90
16200;DHT22;8207;52.494;4.654;2023-06-10T03:45:10;18.10;99.90
16200;DHT22;8207;52.494;4.654;2023-06-10T03:47:38;18.20;99.90
16200;DHT22;8207;52.494;4.654;2023-06-10T03:50:07;18.10;99.90
16200;DHT22;8207;52.494;4.654;2023-06-10T03:52:35;18.10;99.90
16200;DHT22;8207;52.494;4.654;2023-06-10T03:55:05;18.10;99.90
16200;DHT22;8207;52.494;4.654;2023-06-10T03:57:32;18.10;99.90
16200;DHT22;8207;52.494;4.654;2023-06-10T03:59:59;18.20;99.90
16200;DHT22;8207;52.494;4.654;2023-06-10T04:02:25;18.20;99.90
16200;DHT22;8207;52.494;4.654;2023-06-10T04:04:52;18.10;99.90
16200;DHT22;8207;52.494;4.654;2023-06-10T04:07:19;18.20;99.90
16200;DHT22;8207;52.494;4.654;2023-06-10T04:09:46;18.20;99.90
16200;DHT22;8207;52.494;4.654;2023-06-10T04:12:15;18.20;99.90
16200;DHT22;8207;52.494;4.654;2023-06-10T04:14:42;18.20;99.90
16200;DHT22;8207;52.494;4.654;2023-06-10T04:17:09;18.30;99.90
16200;DHT22;8207;52.494;4.654;2023-06-10T04:19:36;18.30;99.90
16200;DHT22;8207;52.494;4.654;2023-06-10T04:22:03;18.30;99.90
16200;DHT22;8207;52.494;4.654;2023-06-10T04:24:30;18.30;99.90
16200;DHT22;8207;52.494;4.654;2023-06-10T04:26:57;18.40;99.90
16200;DHT22;8207;52.494;4.654;2023-06-10T04:29:25;18.40;99.90
16200;DHT22;8207;52.494;4.654;2023-06-10T04:31:52;18.50;99.90
16200;DHT22;8207;52.494;4.654;2023-06-10T04:34:19;18.50;99.90
16200;DHT22;8207;52.494;4.654;2023-06-10T04:36:46;18.60;99.90
16200;DHT22;8207;52.494;4.654;2023-06-10T04:39:13;18.60;99.90
16200;DHT22;8207;52.494;4.654;2023-06-10T04:41:42;18.60;99.90
16200;DHT22;8207;52.494;4.654;2023-06-10T04:44:09;18.60;99.90
16200;DHT22;8207;52.494;4.654;2023-06-10T04:46:37;18.60;99.90
16200;DHT22;8207;52.494;4.654;2023-06-10T04:49:04;18.60;99.90
16200;DHT22;8207;52.494;4.654;2023-06-10T04:51:31;18.70;99.90
16200;DHT22;8207;52.494;4.654;2023-06-10T04:53:58;18.80;99.90
16200;DHT22;8207;52.494;4.654;2023-06-10T04:56:28;18.80;99.90
16200;DHT22;8207;52.494;4.654;2023-06-10T04:58:55;19.00;99.90
16200;DHT22;8207;52.494;4.654;2023-06-10T05:01:22;19.30;99.90
16200;DHT22;8207;52.494;4.654;2023-06-10T05:03:50;19.60;99.90
16200;DHT22;8207;52.494;4.654;2023-06-10T05:06:17;19.90;99.90
16200;DHT22;8207;52.494;4.654;2023-06-10T05:08:44;20.20;99.90
16200;DHT22;8207;52.494;4.654;2023-06-10T05:11:11;20.40;99.90
16200;DHT22;8207;52.494;4.654;2023-06-10T05:13:38;20.70;99.90
16200;DHT22;8207;52.494;4.654;2023-06-10T05:16:05;21.00;99.90
16200;DHT22;8207;52.494;4.654;2023-06-10T05:18:33;21.20;99.90
16200;DHT22;8207;52.494;4.654;2023-06-10T05:21:02;21.40;99.90
16200;DHT22;8207;52.494;4.654;2023-06-10T05:23:29;21.50;99.90
16200;DHT22;8207;52.494;4.654;2023-06-10T05:25:56;21.70;99.90
16200;DHT22;8207;52.494;4.654;2023-06-10T05:28:23;22.00;99.90
16200;DHT22;8207;52.494;4.654;2023-06-10T05:30:51;22.30;99.90
16200;DHT22;8207;52.494;4.654;2023-06-10T05:33:18;22.50;99.90
16200;DHT22;8207;52.494;4.654;2023-06-10T05:35:45;22.70;99.90
16200;DHT22;8207;52.494;4.654;2023-06-10T05:38:13;22.80;99.90
16200;DHT22;8207;52.494;4.654;2023-06-10T05:40:40;22.90;99.90
16200;DHT22;8207;52.494;4.654;2023-06-10T05:43:07;23.20;99.90
16200;DHT22;8207;52.494;4.654;2023-06-10T05:45:35;23.40;99.90
16200;DHT22;8207;52.494;4.654;2023-06-10T05:48:02;23.50;99.90
16200;DHT22;8207;52.494;4.654;2023-06-10T05:50:29;23.70;99.90
16200;DHT22;8207;52.494;4.654;2023-06-10T05:52:56;23.70;99.90
16200;DHT22;8207;52.494;4.654;2023-06-10T05:55:25;23.80;99.90
16200;DHT22;8207;52.494;4.654;2023-06-10T05:57:58;24.10;99.90
16200;DHT22;8207;52.494;4.654;2023-06-10T06:00:26;24.30;99.90
16200;DHT22;8207;52.494;4.654;2023-06-10T06:02:54;24.60;99.90
16200;DHT22;8207;52.494;4.654;2023-06-10T06:05:22;24.90;99.90
16200;DHT22;8207;52.494;4.654;2023-06-10T06:07:49;24.80;99.90
16200;DHT22;8207;52.494;4.654;2023-06-10T06:10:17;24.60;99.90
16200;DHT22;8207;52.494;4.654;2023-06-10T06:12:45;24.50;99.90
16200;DHT22;8207;52.494;4.654;2023-06-10T06:15:12;24.60;99.90
16200;DHT22;8207;52.494;4.654;2023-06-10T06:17:39;24.80;99.90
16200;DHT22;8207;52.494;4.654;2023-06-10T06:20:07;24.90;99.90
16200;DHT22;8207;52.494;4.654;2023-06-10T06:22:34;25.10;99.90
16200;DHT22;8207;52.494;4.654;2023-06-10T06:25:01;25.10;99.90
16200;DHT22;8207;52.494;4.654;2023-06-10T06:27:28;25.10;99.90
16200;DHT22;8207;52.494;4.654;2023-06-10T06:29:56;25.30;99.90
16200;DHT22;8207;52.494;4.654;2023-06-10T06:32:23;25.70;99.90
16200;DHT22;8207;52.494;4.654;2023-06-10T06:34:52;25.90;99.90
16200;DHT22;8207;52.494;4.654;2023-06-10T06:37:21;26.00;99.90
16200;DHT22;8207;52.494;4.654;2023-06-10T06:39:50;26.00;99.90
16200;DHT22;8207;52.494;4.654;2023-06-10T06:42:17;26.10;99.90
16200;DHT22;8207;52.494;4.654;2023-06-10T06:44:44;26.30;99.90
16200;DHT22;8207;52.494;4.654;2023-06-10T06:47:12;26.30;99.90
16200;DHT22;8207;52.494;4.654;2023-06-10T06:49:39;26.30;99.90
16200;DHT22;8207;52.494;4.654;2023-06-10T06:52:07;26.50;99.90
16200;DHT22;8207;52.494;4.654;2023-06-10T06:54:34;26.70;99.90
16200;DHT22;8207;52.494;4.654;2023-06-10T06:57:01;26.50;99.90
16200;DHT22;8207;52.494;4.654;2023-06-10T06:59:28;26.50;99.90
16200;DHT22;8207;52.494;4.654;2023-06-10T07:01:55;26.60;99.90
16200;DHT22;8207;52.494;4.654;2023-06-10T07:04:23;26.80;99.90
16200;DHT22;8207;52.494;4.654;2023-06-10T07:06:50;27.00;99.90
16200;DHT22;8207;52.494;4.654;2023-06-10T07:09:17;26.80;99.90
16200;DHT22;8207;52.494;4.654;2023-06-10T07:12:09;27.10;99.90
16200;DHT22;8207;52.494;4.654;2023-06-10T07:22:05;27.40;99.90
16200;DHT22;8207;52.494;4.654;2023-06-10T07:24:32;27.50;99.90
16200;DHT22;8207;52.494;4.654;2023-06-10T07:26:59;27.40;99.90
16200;DHT22;8207;52.494;4.654;2023-06-10T07:29:26;27.20;99.90
16200;DHT22;8207;52.494;4.654;2023-06-10T07:31:53;27.10;99.90
16200;DHT22;8207;52.494;4.654;2023-06-10T07:34:20;26.90;99.90
16200;DHT22;8207;52.494;4.654;2023-06-10T07:40:09;26.80;99.90
16200;DHT22;8207;52.494;4.654;2023-06-10T07:42:36;26.90;99.90
16200;DHT22;8207;52.494;4.654;2023-06-10T07:45:03;27.00;99.90
16200;DHT22;8207;52.494;4.654;2023-06-10T07:47:32;26.80;99.90
16200;DHT22;8207;52.494;4.654;2023-06-10T07:50:00;26.90;99.90
16200;DHT22;8207;52.494;4.654;2023-06-10T07:52:27;26.90;99.90
16200;DHT22;8207;52.494;4.654;2023-06-10T07:54:54;27.00;99.90
16200;DHT22;8207;52.494;4.654;2023-06-10T07:57:22;27.20;99.90
16200;DHT22;8207;52.494;4.654;2023-06-10T07:59:49;27.40;99.90
16200;DHT22;8207;52.494;4.654;2023-06-10T08:02:16;27.50;99.90
16200;DHT22;8207;52.494;4.654;2023-06-10T08:04:43;27.50;99.90
16200;DHT22;8207;52.494;4.654;2023-06-10T08:07:10;27.50;99.90
16200;DHT22;8207;52.494;4.654;2023-06-10T08:09:36;27.80;99.90
16200;DHT22;8207;52.494;4.654;2023-06-10T08:12:05;28.10;99.90
16200;DHT22;8207;52.494;4.654;2023-06-10T08:14:33;28.10;99.90
16200;DHT22;8207;52.494;4.654;2023-06-10T08:17:00;28.10;99.90
16200;DHT22;8207;52.494;4.654;2023-06-10T08:19:27;28.10;99.90
16200;DHT22;8207;52.494;4.654;2023-06-10T08:21:54;28.20;99.90
16200;DHT22;8207;52.494;4.654;2023-06-10T08:24:20;28.20;99.90
16200;DHT22;8207;52.494;4.654;2023-06-10T08:26:47;28.10;99.90
16200;DHT22;8207;52.494;4.654;2023-06-10T08:29:14;28.20;99.90
16200;DHT22;8207;52.494;4.654;2023-06-10T08:31:43;28.20;99.90
16200;DHT22;8207;52.494;4.654;2023-06-10T08:34:10;28.40;99.90
16200;DHT22;8207;52.494;4.654;2023-06-10T08:36:37;28.40;99.90
16200;DHT22;8207;52.494;4.654;2023-06-10T08:39:04;28.60;99.90
16200;DHT22;8207;52.494;4.654;2023-06-10T08:41:35;28.60;99.90
16200;DHT22;8207;52.494;4.654;2023-06-10T08:44:08;28.40;99.90
16200;DHT22;8207;52.494;4.654;2023-06-10T08:46:36;28.40;99.90
16200;DHT22;8207;52.494;4.654;2023-06-10T08:49:06;28.50;99.90
16200;DHT22;8207;52.494;4.654;2023-06-10T08:51:35;28.80;99.90
16200;DHT22;8207;52.494;4.654;2023-06-10T08:54:08;29.30;99.90
16200;DHT22;8207;52.494;4.654;2023-06-10T08:56:39;29.40;99.90
16200;DHT22;8207;52.494;4.654;2023-06-10T08:59:08;29.20;99.90
16200;DHT22;8207;52.494;4.654;2023-06-10T09:01:36;29.30;99.90
16200;DHT22;8207;52.494;4.654;2023-06-10T09:04:05;29.40;99.90
16200;DHT22;8207;52.494;4.654;2023-06-10T09:06:34;29.40;99.90
16200;DHT22;8207;52.494;4.654;2023-06-10T09:09:04;29.60;99.90
16200;DHT22;8207;52.494;4.654;2023-06-10T09:11:32;29.50;99.90
16200;DHT22;8207;52.494;4.654;2023-06-10T09:13:59;29.20;99.90
16200;DHT22;8207;52.494;4.654;2023-06-10T09:16:26;29.20;99.90
16200;DHT22;8207;52.494;4.654;2023-06-10T09:18:53;29.20;99.90
16200;DHT22;8207;52.494;4.654;2023-06-10T09:21:22;29.30;99.90
16200;DHT22;8207;52.494;4.654;2023-06-10T09:23:49;29.10;99.90
16200;DHT22;8207;52.494;4.654;2023-06-10T09:26:17;29.00;99.90
16200;DHT22;8207;52.494;4.654;2023-06-10T09:28:46;29.30;99.90
16200;DHT22;8207;52.494;4.654;2023-06-10T09:31:16;29.50;99.90
16200;DHT22;8207;52.494;4.654;2023-06-10T09:33:45;29.50;99.90
16200;DHT22;8207;52.494;4.654;2023-06-10T09:36:22;29.60;99.90
16200;DHT22;8207;52.494;4.654;2023-06-10T09:38:50;29.40;99.90
16200;DHT22;8207;52.494;4.654;2023-06-10T09:41:17;29.30;99.90
16200;DHT22;8207;52.494;4.654;2023-06-10T09:43:45;29.30;99.90
16200;DHT22;8207;52.494;4.654;2023-06-10T09:46:15;29.40;99.90
16200;DHT22;8207;52.494;4.654;2023-06-10T09:48:43;29.20;99.90
16200;DHT22;8207;52.494;4.654;2023-06-10T09:51:12;29.10;99.90
16200;DHT22;8207;52.494;4.654;2023-06-10T09:53:40;29.20;99.90
16200;DHT22;8207;52.494;4.654;2023-06-10T09:56:07;29.10;99.90
16200;DHT22;8207;52.494;4.654;2023-06-10T09:58:35;29.10;99.90
16200;DHT22;8207;52.494;4.654;2023-06-10T10:01:05;29.00;99.90
16200;DHT22;8207;52.494;4.654;2023-06-10T10:03:32;28.80;99.90
16200;DHT22;8207;52.494;4.654;2023-06-10T10:05:59;28.60;99.90
16200;DHT22;8207;52.494;4.654;2023-06-10T10:08:27;28.60;99.90
16200;DHT22;8207;52.494;4.654;2023-06-10T10:10:56;28.80;99.90
16200;DHT22;8207;52.494;4.654;2023-06-10T10:13:26;28.90;99.90
16200;DHT22;8207;52.494;4.654;2023-06-10T10:15:55;28.90;99.90
16200;DHT22;8207;52.494;4.654;2023-06-10T10:18:25;29.20;99.90
16200;DHT22;8207;52.494;4.654;2023-06-10T10:20:56;29.40;99.90
16200;DHT22;8207;52.494;4.654;2023-06-10T10:23:28;29.40;99.90
16200;DHT22;8207;52.494;4.654;2023-06-10T10:26:00;29.90;99.90
16200;DHT22;8207;52.494;4.654;2023-06-10T10:28:36;30.20;99.90
16200;DHT22;8207;52.494;4.654;2023-06-10T10:31:08;30.30;99.90
16200;DHT22;8207;52.494;4.654;2023-06-10T10:33:42;30.20;99.90
16200;DHT22;8207;52.494;4.654;2023-06-10T10:36:12;30.10;99.90
16200;DHT22;8207;52.494;4.654;2023-06-10T10:38:41;30.30;99.90
16200;DHT22;8207;52.494;4.654;2023-06-10T10:41:10;30.60;99.90
16200;DHT22;8207;52.494;4.654;2023-06-10T10:43:37;30.80;99.90
16200;DHT22;8207;52.494;4.654;2023-06-10T10:46:13;31.10;99.90
16200;DHT22;8207;52.494;4.654;2023-06-10T10:48:41;30.80;99.90
16200;DHT22;8207;52.494;4.654;2023-06-10T10:51:10;30.60;99.90
16200;DHT22;8207;52.494;4.654;2023-06-10T10:53:37;30.10;99.90
16200;DHT22;8207;52.494;4.654;2023-06-10T10:56:05;30.00;99.90
16200;DHT22;8207;52.494;4.654;2023-06-10T10:58:34;30.10;99.90
16200;DHT22;8207;52.494;4.654;2023-06-10T11:01:10;29.80;99.90
16200;DHT22;8207;52.494;4.654;2023-06-10T11:03:43;30.00;99.90
16200;DHT22;8207;52.494;4.654;2023-06-10T11:06:12;30.30;99.90
16200;DHT22;8207;52.494;4.654;2023-06-10T11:08:46;30.20;99.90
16200;DHT22;8207;52.494;4.654;2023-06-10T11:11:20;30.20;99.90
16200;DHT22;8207;52.494;4.654;2023-06-10T11:14:13;30.20;99.90
16200;DHT22;8207;52.494;4.654;2023-06-10T11:16:56;30.10;99.90
16200;DHT22;8207;52.494;4.654;2023-06-10T11:19:33;30.00;99.90
16200;DHT22;8207;52.494;4.654;2023-06-10T11:22:03;30.20;99.90
16200;DHT22;8207;52.494;4.654;2023-06-10T11:24:30;30.10;99.90
16200;DHT22;8207;52.494;4.654;2023-06-10T11:27:15;30.00;99.90
16200;DHT22;8207;52.494;4.654;2023-06-10T11:32:38;30.10;99.90
16200;DHT22;8207;52.494;4.654;2023-06-10T11:35:07;30.20;99.90
16200;DHT22;8207;52.494;4.654;2023-06-10T11:37:34;30.20;99.90
16200;DHT22;8207;52.494;4.654;2023-06-10T11:40:02;30.10;99.90
16200;DHT22;8207;52.494;4.654;2023-06-10T11:42:29;30.10;99.90
16200;DHT22;8207;52.494;4.654;2023-06-10T11:44:58;30.40;99.90
16200;DHT22;8207;52.494;4.654;2023-06-10T11:47:28;30.30;99.90
16200;DHT22;8207;52.494;4.654;2023-06-10T11:49:56;30.60;99.90
16200;DHT22;8207;52.494;4.654;2023-06-10T11:52:26;30.80;99.90
16200;DHT22;8207;52.494;4.654;2023-06-10T11:54:53;30.80;99.90
16200;DHT22;8207;52.494;4.654;2023-06-10T11:57:20;31.00;99.90
16200;DHT22;8207;52.494;4.654;2023-06-10T11:59:47;31.20;99.90
16200;DHT22;8207;52.494;4.654;2023-06-10T12:02:16;31.40;99.90
16200;DHT22;8207;52.494;4.654;2023-06-10T12:04:44;31.40;99.90
16200;DHT22;8207;52.494;4.654;2023-06-10T12:07:17;31.30;99.90
16200;DHT22;8207;52.494;4.654;2023-06-10T12:09:44;31.30;99.90
16200;DHT22;8207;52.494;4.654;2023-06-10T12:12:11;31.20;99.90
16200;DHT22;8207;52.494;4.654;2023-06-10T12:14:51;31.00;99.90
16200;DHT22;8207;52.494;4.654;2023-06-10T12:17:22;31.00;99.90
16200;DHT22;8207;52.494;4.654;2023-06-10T12:19:50;30.90;99.90
16200;DHT22;8207;52.494;4.654;2023-06-10T12:22:17;30.80;99.90
16200;DHT22;8207;52.494;4.654;2023-06-10T12:24:45;30.80;99.90
16200;DHT22;8207;52.494;4.654;2023-06-10T12:27:12;30.80;99.90
16200;DHT22;8207;52.494;4.654;2023-06-10T12:29:39;30.50;99.90
16200;DHT22;8207;52.494;4.654;2023-06-10T12:32:17;30.70;99.90
16200;DHT22;8207;52.494;4.654;2023-06-10T12:34:47;31.10;99.90
16200;DHT22;8207;52.494;4.654;2023-06-10T12:37:14;31.40;99.90
16200;DHT22;8207;52.494;4.654;2023-06-10T12:39:41;31.60;99.90
16200;DHT22;8207;52.494;4.654;2023-06-10T12:42:09;31.50;99.90
16200;DHT22;8207;52.494;4.654;2023-06-10T12:44:39;31.40;99.90
16200;DHT22;8207;52.494;4.654;2023-06-10T12:47:10;31.40;99.90
16200;DHT22;8207;52.494;4.654;2023-06-10T12:49:39;31.10;99.90
16200;DHT22;8207;52.494;4.654;2023-06-10T12:52:07;31.10;99.90
16200;DHT22;8207;52.494;4.654;2023-06-10T12:54:34;31.00;99.90
16200;DHT22;8207;52.494;4.654;2023-06-10T12:57:02;31.00;99.90
16200;DHT22;8207;52.494;4.654;2023-06-10T12:59:29;31.10;99.90
16200;DHT22;8207;52.494;4.654;2023-06-10T13:01:57;31.20;99.90
16200;DHT22;8207;52.494;4.654;2023-06-10T13:04:26;31.40;99.90
16200;DHT22;8207;52.494;4.654;2023-06-10T13:06:53;31.40;99.90
16200;DHT22;8207;52.494;4.654;2023-06-10T13:09:21;31.50;99.90
16200;DHT22;8207;52.494;4.654;2023-06-10T13:11:48;31.50;99.90
16200;DHT22;8207;52.494;4.654;2023-06-10T13:14:15;31.50;99.90
16200;DHT22;8207;52.494;4.654;2023-06-10T13:16:42;31.60;99.90
16200;DHT22;8207;52.494;4.654;2023-06-10T13:19:10;31.50;99.90
16200;DHT22;8207;52.494;4.654;2023-06-10T13:21:37;31.40;99.90
16200;DHT22;8207;52.494;4.654;2023-06-10T13:24:06;31.50;99.90
16200;DHT22;8207;52.494;4.654;2023-06-10T13:26:34;31.60;99.90
16200;DHT22;8207;52.494;4.654;2023-06-10T13:29:01;31.70;99.90
16200;DHT22;8207;52.494;4.654;2023-06-10T13:31:28;31.80;99.90
16200;DHT22;8207;52.494;4.654;2023-06-10T13:33:55;31.80;99.90
16200;DHT22;8207;52.494;4.654;2023-06-10T13:36:22;31.70;99.90
16200;DHT22;8207;52.494;4.654;2023-06-10T13:38:49;31.60;99.90
16200;DHT22;8207;52.494;4.654;2023-06-10T13:41:15;31.50;99.90
16200;DHT22;8207;52.494;4.654;2023-06-10T13:43:44;31.40;99.90
16200;DHT22;8207;52.494;4.654;2023-06-10T13:46:11;31.40;99.90
16200;DHT22;8207;52.494;4.654;2023-06-10T13:48:37;31.20;99.90
16200;DHT22;8207;52.494;4.654;2023-06-10T13:51:04;31.20;99.90
16200;DHT22;8207;52.494;4.654;2023-06-10T13:53:32;31.20;99.90
16200;DHT22;8207;52.494;4.654;2023-06-10T13:55:59;31.20;99.90
16200;DHT22;8207;52.494;4.654;2023-06-10T13:58:26;31.20;99.90
16200;DHT22;8207;52.494;4.654;2023-06-10T14:00:55;31.10;99.90
16200;DHT22;8207;52.494;4.654;2023-06-10T14:03:22;31.20;99.90
16200;DHT22;8207;52.494;4.654;2023-06-10T14:05:49;31.30;99.90
16200;DHT22;8207;52.494;4.654;2023-06-10T14:08:15;31.30;99.90
16200;DHT22;8207;52.494;4.654;2023-06-10T14:10:43;31.40;99.90
16200;DHT22;8207;52.494;4.654;2023-06-10T14:13:09;31.30;99.90
16200;DHT22;8207;52.494;4.654;2023-06-10T14:15:36;31.20;99.90
16200;DHT22;8207;52.494;4.654;2023-06-10T14:18:04;31.10;99.90
16200;DHT22;8207;52.494;4.654;2023-06-10T14:20:32;31.00;99.90
16200;DHT22;8207;52.494;4.654;2023-06-10T14:22:58;31.00;99.90
16200;DHT22;8207;52.494;4.654;2023-06-10T14:25:25;30.90;99.90
16200;DHT22;8207;52.494;4.654;2023-06-10T14:27:52;30.80;99.90
16200;DHT22;8207;52.494;4.654;2023-06-10T14:30:19;30.90;99.90
16200;DHT22;8207;52.494;4.654;2023-06-10T14:32:46;31.00;99.90
16200;DHT22;8207;52.494;4.654;2023-06-10T14:35:14;31.10;99.90
16200;DHT22;8207;52.494;4.654;2023-06-10T14:37:41;31.10;99.90
16200;DHT22;8207;52.494;4.654;2023-06-10T14:40:09;31.10;99.90
16200;DHT22;8207;52.494;4.654;2023-06-10T14:42:36;31.10;99.90
16200;DHT22;8207;52.494;4.654;2023-06-10T14:45:04;31.00;99.90
16200;DHT22;8207;52.494;4.654;2023-06-10T14:47:31;31.10;99.90
16200;DHT22;8207;52.494;4.654;2023-06-10T14:49:58;30.90;99.90
16200;DHT22;8207;52.494;4.654;2023-06-10T14:52:26;30.80;99.90
16200;DHT22;8207;52.494;4.654;2023-06-10T14:54:53;30.70;99.90
16200;DHT22;8207;52.494;4.654;2023-06-10T14:57:20;30.80;99.90
16200;DHT22;8207;52.494;4.654;2023-06-10T14:59:46;30.80;99.90
16200;DHT22;8207;52.494;4.654;2023-06-10T15:02:13;30.80;99.90
16200;DHT22;8207;52.494;4.654;2023-06-10T15:04:40;30.80;99.90
16200;DHT22;8207;52.494;4.654;2023-06-10T15:07:07;30.80;99.90
16200;DHT22;8207;52.494;4.654;2023-06-10T15:09:35;30.80;99.90
16200;DHT22;8207;52.494;4.654;2023-06-10T15:12:03;30.80;99.90
16200;DHT22;8207;52.494;4.654;2023-06-10T15:14:31;30.90;99.90
16200;DHT22;8207;52.494;4.654;2023-06-10T15:16:58;30.80;99.90
16200;DHT22;8207;52.494;4.654;2023-06-10T15:19:24;30.80;99.90
16200;DHT22;8207;52.494;4.654;2023-06-10T15:21:52;30.70;99.90
16200;DHT22;8207;52.494;4.654;2023-06-10T15:24:19;30.80;99.90
16200;DHT22;8207;52.494;4.654;2023-06-10T15:26:47;30.70;99.90
16200;DHT22;8207;52.494;4.654;2023-06-10T15:29:14;30.60;99.90
16200;DHT22;8207;52.494;4.654;2023-06-10T15:31:41;30.60;99.90
16200;DHT22;8207;52.494;4.654;2023-06-10T15:34:08;30.50;99.90
16200;DHT22;8207;52.494;4.654;2023-06-10T15:36:35;30.50;99.90
16200;DHT22;8207;52.494;4.654;2023-06-10T15:39:04;30.40;99.90
16200;DHT22;8207;52.494;4.654;2023-06-10T15:41:32;30.40;99.90
16200;DHT22;8207;52.494;4.654;2023-06-10T15:44:00;30.40;99.90
16200;DHT22;8207;52.494;4.654;2023-06-10T15:46:27;30.50;99.90
16200;DHT22;8207;52.494;4.654;2023-06-10T15:48:54;30.40;99.90
16200;DHT22;8207;52.494;4.654;2023-06-10T15:51:21;30.40;99.90
16200;DHT22;8207;52.494;4.654;2023-06-10T15:53:48;30.50;99.90
16200;DHT22;8207;52.494;4.654;2023-06-10T15:56:15;30.40;99.90
16200;DHT22;8207;52.494;4.654;2023-06-10T15:58:42;30.50;99.90
16200;DHT22;8207;52.494;4.654;2023-06-10T16:01:11;30.50;99.90
16200;DHT22;8207;52.494;4.654;2023-06-10T16:03:38;30.40;99.90